createdAt,value
2019-05-11T00:01:38.549Z,90.40
2019-05-11T00:04:05.920Z,90.50
2019-05-11T00:06:33.105Z,90.70
2019-05-11T00:09:00.206Z,90.60
2019-05-11T00:11:27.325Z,90.60
2019-05-11T00:13:54.604Z,90.20
2019-05-11T00:16:22.090Z,90.40
2019-05-11T00:18:49.526Z,90.50
2019-05-11T00:21:17.017Z,90.60
2019-05-11T00:23:44.220Z,90.50
2019-05-11T00:26:13.555Z,90.50
2019-05-11T00:28:41.011Z,90.60
2019-05-11T00:31:09.441Z,91.10
2019-05-11T00:33:36.440Z,91.30
2019-05-11T00:36:03.314Z,91.60
2019-05-11T00:38:30.367Z,92.00
2019-05-11T00:40:57.949Z,92.40
2019-05-11T00:43:25.159Z,92.20
2019-05-11T00:45:52.733Z,92.10
2019-05-11T00:48:20.476Z,92.10
2019-05-11T00:50:47.710Z,92.40
2019-05-11T00:53:14.881Z,92.40
2019-05-11T00:55:42.165Z,92.40
2019-05-11T00:58:09.553Z,93.10
2019-05-11T01:00:36.992Z,93.00
2019-05-11T01:03:04.236Z,93.20
2019-05-11T01:05:31.495Z,93.30
2019-05-11T01:07:58.668Z,93.50
2019-05-11T01:10:41.105Z,93.70
2019-05-11T01:12:55.084Z,93.90
2019-05-11T01:15:22.416Z,94.00
2019-05-11T01:17:50.007Z,94.10
2019-05-11T01:20:18.740Z,94.10
2019-05-11T01:22:46.313Z,94.30
2019-05-11T01:25:13.554Z,94.40
2019-05-11T01:27:41.004Z,94.40
2019-05-11T01:30:08.582Z,94.20
2019-05-11T01:32:36.048Z,93.90
2019-05-11T01:35:03.966Z,93.80
2019-05-11T01:37:34.216Z,93.90
2019-05-11T01:40:01.578Z,94.30
2019-05-11T01:42:28.974Z,94.60
2019-05-11T01:44:56.078Z,94.90
2019-05-11T01:47:24.023Z,94.80
2019-05-11T01:49:51.183Z,95.20
2019-05-11T01:52:18.376Z,95.20
2019-05-11T01:54:45.903Z,95.30
2019-05-11T01:57:14.149Z,95.20
2019-05-11T01:59:41.966Z,95.30
2019-05-11T02:02:08.882Z,95.20
2019-05-11T02:04:35.887Z,95.20
2019-05-11T02:07:03.267Z,95.00
2019-05-11T02:09:30.583Z,94.80
2019-05-11T02:11:57.911Z,94.90
2019-05-11T02:14:25.432Z,94.90
2019-05-11T02:16:56.188Z,95.10
2019-05-11T02:19:23.570Z,95.20
2019-05-11T02:21:50.724Z,95.20
2019-05-11T02:24:17.925Z,95.30
2019-05-11T02:26:45.178Z,95.40
2019-05-11T02:29:12.378Z,95.60
2019-05-11T02:31:40.115Z,95.80
2019-05-11T02:34:07.122Z,96.20
2019-05-11T02:36:35.230Z,96.40
2019-05-11T02:39:05.181Z,96.40
2019-05-11T02:41:36.891Z,96.40
2019-05-11T02:44:01.813Z,96.30
2019-05-11T02:46:29.471Z,96.20
2019-05-11T02:48:56.978Z,96.40
2019-05-11T02:51:24.352Z,96.60
2019-05-11T02:53:52.537Z,96.60
2019-05-11T02:56:19.866Z,96.40
2019-05-11T02:58:47.209Z,96.30
2019-05-11T03:01:14.474Z,96.40
2019-05-11T03:03:41.421Z,96.60
2019-05-11T03:06:09.275Z,96.60
2019-05-11T03:08:36.559Z,96.60
2019-05-11T03:11:03.835Z,96.60
2019-05-11T03:13:30.996Z,96.60
2019-05-11T03:15:58.160Z,96.60
2019-05-11T03:18:25.549Z,96.60
2019-05-11T03:20:52.558Z,96.60
2019-05-11T03:23:19.826Z,96.60
2019-05-11T03:25:47.011Z,96.60
2019-05-11T03:28:14.291Z,96.60
2019-05-11T03:30:41.612Z,96.60
2019-05-11T03:33:08.715Z,96.60
2019-05-11T03:35:35.751Z,96.60
2019-05-11T03:38:02.961Z,96.60
2019-05-11T03:40:30.323Z,96.60
2019-05-11T03:42:57.614Z,96.60
2019-05-11T03:45:24.873Z,96.60
2019-05-11T03:47:52.069Z,96.60
2019-05-11T03:50:19.221Z,96.60
2019-05-11T03:52:46.208Z,96.60
2019-05-11T03:55:13.613Z,96.60
2019-05-11T03:57:44.091Z,96.60
2019-05-11T04:00:11.504Z,96.60
2019-05-11T04:02:38.856Z,96.60
2019-05-11T04:05:06.340Z,96.60
2019-05-11T04:07:33.315Z,96.60
2019-05-11T04:10:00.537Z,96.60
2019-05-11T04:12:34.525Z,96.60
2019-05-11T04:14:57.134Z,96.60
2019-05-11T04:17:24.569Z,96.60
2019-05-11T04:19:52.010Z,96.60
2019-05-11T04:22:20.136Z,96.60
2019-05-11T04:24:47.432Z,96.60
2019-05-11T04:27:19.322Z,96.60
2019-05-11T04:29:44.260Z,96.60
2019-05-11T04:32:11.659Z,96.60
2019-05-11T04:34:38.945Z,96.60
2019-05-11T04:37:05.937Z,96.60
2019-05-11T04:39:33.201Z,96.60
2019-05-11T04:42:00.505Z,96.60
2019-05-11T04:44:27.903Z,96.60
2019-05-11T04:46:55.392Z,96.60
2019-05-11T04:49:22.528Z,96.60
2019-05-11T04:51:50.084Z,96.60
2019-05-11T04:54:17.335Z,96.60
2019-05-11T04:56:45.745Z,96.60
2019-05-11T04:59:13.256Z,96.60
2019-05-11T05:01:41.275Z,96.60
2019-05-11T05:04:13.658Z,96.60
2019-05-11T05:06:39.007Z,96.60
2019-05-11T05:09:06.346Z,96.60
2019-05-11T05:11:36.959Z,96.60
2019-05-11T05:14:08.119Z,96.60
2019-05-11T05:16:32.870Z,96.60
2019-05-11T05:18:59.760Z,96.60
2019-05-11T05:21:27.221Z,96.60
2019-05-11T05:23:54.494Z,96.60
2019-05-11T05:26:28.025Z,96.60
2019-05-11T05:28:55.132Z,96.60
2019-05-11T05:31:22.290Z,96.60
2019-05-11T05:33:49.519Z,96.60
2019-05-11T05:36:16.724Z,96.60
2019-05-11T05:38:43.793Z,96.60
2019-05-11T05:41:11.040Z,96.60
2019-05-11T05:43:38.535Z,96.60
2019-05-11T05:48:32.644Z,96.60
2019-05-11T05:50:59.955Z,96.60
2019-05-11T05:53:27.092Z,96.60
2019-05-11T05:55:54.526Z,96.60
2019-05-11T05:58:21.660Z,96.60
2019-05-11T06:00:48.814Z,96.60
2019-05-11T06:03:19.170Z,96.60
2019-05-11T06:05:46.419Z,96.60
2019-05-11T06:08:13.635Z,96.60
2019-05-11T06:10:41.116Z,96.60
2019-05-11T06:13:11.588Z,96.60
2019-05-11T06:15:38.625Z,96.60
2019-05-11T06:18:11.949Z,96.60
2019-05-11T06:20:39.108Z,96.60
2019-05-11T06:23:06.237Z,96.60
2019-05-11T06:25:33.486Z,96.60
2019-05-11T06:28:00.479Z,96.60
2019-05-11T06:30:28.361Z,96.60
2019-05-11T06:32:55.271Z,96.60
2019-05-11T06:35:22.828Z,96.60
2019-05-11T06:37:50.160Z,96.60
2019-05-11T06:40:19.381Z,96.60
2019-05-11T06:42:48.014Z,96.60
2019-05-11T06:45:15.291Z,95.90
2019-05-11T06:47:42.581Z,95.60
2019-05-11T06:50:10.119Z,95.30
2019-05-11T06:52:37.245Z,94.50
2019-05-11T06:55:04.775Z,93.50
2019-05-11T06:57:32.251Z,93.30
2019-05-11T07:00:00.551Z,93.20
2019-05-11T07:02:27.922Z,93.40
2019-05-11T07:04:54.880Z,93.60
2019-05-11T07:07:22.088Z,93.60
2019-05-11T07:09:49.260Z,93.60
2019-05-11T07:12:16.624Z,93.40
2019-05-11T07:14:44.824Z,93.80
2019-05-11T07:17:11.970Z,93.70
2019-05-11T07:19:38.865Z,93.40
2019-05-11T07:22:05.907Z,92.40
2019-05-11T07:24:33.684Z,92.00
2019-05-11T07:27:01.174Z,91.90
2019-05-11T07:29:28.235Z,91.70
2019-05-11T07:31:57.894Z,91.50
2019-05-11T07:34:24.895Z,91.70
2019-05-11T07:36:52.302Z,92.20
2019-05-11T07:39:19.352Z,92.70
2019-05-11T07:41:48.058Z,93.00
2019-05-11T07:44:15.705Z,92.90
2019-05-11T07:46:48.266Z,92.80
2019-05-11T07:49:17.821Z,93.00
2019-05-11T07:51:44.511Z,93.10
2019-05-11T07:54:11.998Z,93.10
2019-05-11T07:56:39.620Z,92.90
2019-05-11T07:59:07.975Z,92.80
2019-05-11T08:01:35.533Z,92.80
2019-05-11T08:04:02.898Z,92.80
2019-05-11T08:06:30.282Z,93.30
2019-05-11T08:08:58.867Z,93.00
2019-05-11T08:11:30.721Z,93.40
2019-05-11T08:13:58.246Z,94.20
2019-05-11T08:16:28.498Z,94.00
2019-05-11T08:18:55.169Z,93.60
2019-05-11T08:21:25.673Z,94.20
2019-05-11T08:23:52.972Z,94.30
2019-05-11T08:26:23.285Z,93.60
2019-05-11T08:28:50.419Z,92.10
2019-05-11T08:31:18.699Z,91.70
2019-05-11T08:33:48.018Z,91.40
2019-05-11T08:36:15.422Z,92.60
2019-05-11T08:38:42.754Z,92.90
2019-05-11T08:41:10.350Z,92.30
2019-05-11T08:43:38.838Z,92.20
2019-05-11T08:46:07.935Z,92.10
2019-05-11T08:48:35.930Z,91.40
2019-05-11T08:51:03.288Z,90.50
2019-05-11T08:53:31.425Z,90.60
2019-05-11T08:55:58.927Z,91.00
2019-05-11T08:58:27.804Z,90.40
2019-05-11T09:00:55.420Z,90.90
2019-05-11T09:03:22.662Z,91.60
2019-05-11T09:05:49.508Z,90.70
2019-05-11T09:08:18.782Z,90.30
2019-05-11T09:10:46.218Z,90.80
2019-05-11T09:13:14.344Z,89.70
2019-05-11T09:15:41.757Z,90.20
2019-05-11T09:18:08.776Z,91.00
2019-05-11T09:20:37.860Z,90.90
2019-05-11T09:23:05.510Z,91.30
2019-05-11T09:25:32.684Z,90.90
2019-05-11T09:28:00.088Z,90.60
2019-05-11T09:30:28.788Z,91.30
2019-05-11T09:32:58.078Z,92.80
2019-05-11T09:35:25.193Z,93.10
2019-05-11T09:37:52.488Z,90.80
2019-05-11T09:40:19.676Z,90.60
2019-05-11T09:42:50.080Z,90.00
2019-05-11T09:45:18.619Z,88.90
2019-05-11T09:47:47.703Z,88.40
2019-05-11T09:50:17.271Z,88.90
2019-05-11T09:52:44.446Z,88.20
2019-05-11T09:55:11.429Z,87.10
2019-05-11T09:57:38.838Z,87.20
2019-05-11T10:00:08.500Z,88.00
2019-05-11T10:02:38.330Z,87.40
2019-05-11T10:05:05.137Z,87.80
2019-05-11T10:07:32.603Z,87.60
2019-05-11T10:10:00.409Z,88.40
2019-05-11T10:12:28.636Z,89.30
2019-05-11T10:14:55.982Z,90.30
2019-05-11T10:17:23.160Z,90.80
2019-05-11T10:19:50.856Z,90.60
2019-05-11T10:22:18.567Z,87.80
2019-05-11T10:24:47.697Z,88.40
2019-05-11T10:27:15.020Z,88.30
2019-05-11T10:29:42.244Z,88.30
2019-05-11T10:32:09.866Z,89.50
2019-05-11T10:34:38.604Z,89.00
2019-05-11T10:37:08.365Z,88.00
2019-05-11T10:39:35.626Z,88.40
2019-05-11T10:42:03.342Z,88.70
2019-05-11T10:44:30.734Z,88.30
2019-05-11T10:46:58.880Z,90.10
2019-05-11T10:49:28.629Z,90.50
2019-05-11T10:51:55.083Z,91.00
2019-05-11T10:54:22.078Z,92.90
2019-05-11T10:56:49.409Z,91.20
2019-05-11T10:59:20.092Z,90.70
2019-05-11T11:01:48.575Z,87.50
2019-05-11T11:04:18.171Z,87.20
2019-05-11T11:06:45.002Z,85.60
2019-05-11T11:09:12.209Z,85.30
2019-05-11T11:11:39.166Z,84.70
2019-05-11T11:14:08.724Z,81.20
2019-05-11T11:16:40.385Z,79.50
2019-05-11T11:19:07.533Z,76.90
2019-05-11T11:21:34.557Z,78.90
2019-05-11T11:24:02.600Z,79.00
2019-05-11T11:26:30.143Z,80.10
2019-05-11T11:28:58.121Z,79.80
2019-05-11T11:31:25.640Z,80.10
2019-05-11T11:33:55.535Z,79.80
2019-05-11T11:36:22.226Z,80.40
2019-05-11T11:38:49.545Z,81.60
2019-05-11T11:41:18.665Z,81.70
2019-05-11T11:43:48.102Z,83.00
2019-05-11T11:46:18.767Z,83.10
2019-05-11T11:48:48.557Z,82.10
2019-05-11T11:51:15.708Z,82.70
2019-05-11T11:53:42.991Z,83.90
2019-05-11T11:56:10.390Z,84.90
2019-05-11T11:58:38.168Z,87.60
2019-05-11T12:01:08.189Z,87.70
2019-05-11T12:03:35.043Z,87.80
2019-05-11T12:06:02.779Z,88.70
2019-05-11T12:08:29.806Z,90.20
2019-05-11T12:10:58.929Z,90.60
2019-05-11T12:13:29.095Z,90.70
2019-05-11T12:15:55.473Z,91.10
2019-05-11T12:18:28.526Z,89.00
2019-05-11T12:20:55.702Z,88.50
2019-05-11T12:23:22.780Z,87.90
2019-05-11T12:25:50.432Z,87.90
2019-05-11T12:28:18.552Z,88.40
2019-05-11T12:30:47.560Z,88.30
2019-05-11T12:33:14.532Z,86.90
2019-05-11T12:35:41.708Z,88.10
2019-05-11T12:38:09.688Z,88.90
2019-05-11T12:40:38.824Z,87.80
2019-05-11T12:43:08.137Z,87.00
2019-05-11T12:45:37.526Z,87.00
2019-05-11T12:48:05.054Z,87.70
2019-05-11T12:50:32.588Z,88.60
2019-05-11T12:52:59.810Z,87.40
2019-05-11T12:55:28.686Z,88.90
2019-05-11T12:57:58.022Z,86.80
2019-05-11T13:00:30.428Z,87.10
2019-05-11T13:02:54.728Z,85.80
2019-05-11T13:05:21.925Z,86.20
2019-05-11T13:07:49.336Z,87.60
2019-05-11T13:10:17.760Z,85.50
2019-05-11T13:12:46.411Z,83.30
2019-05-11T13:15:13.788Z,84.00
2019-05-11T13:17:41.289Z,85.40
2019-05-11T13:20:12.667Z,83.00
2019-05-11T13:22:39.373Z,82.50
2019-05-11T13:25:08.603Z,81.80
2019-05-11T13:27:35.727Z,81.20
2019-05-11T13:30:03.395Z,78.00
2019-05-11T13:32:30.655Z,79.00
2019-05-11T13:34:58.372Z,80.00
2019-05-11T13:37:28.134Z,78.70
2019-05-11T13:39:54.735Z,80.00
2019-05-11T13:42:23.314Z,80.30
2019-05-11T13:44:50.954Z,77.10
2019-05-11T13:47:18.446Z,73.80
2019-05-11T13:49:47.901Z,72.10
2019-05-11T13:52:14.796Z,72.70
2019-05-11T13:54:41.992Z,73.00
2019-05-11T13:57:09.296Z,70.20
2019-05-11T13:59:38.456Z,70.90
2019-05-11T14:02:10.193Z,72.30
2019-05-11T14:04:35.451Z,72.30
2019-05-11T14:07:02.834Z,70.40
2019-05-11T14:09:30.285Z,71.60
2019-05-11T14:11:58.361Z,69.80
2019-05-11T14:14:28.527Z,70.10
2019-05-11T14:16:55.800Z,67.40
2019-05-11T14:19:22.971Z,67.60
2019-05-11T14:21:50.841Z,67.30
2019-05-11T14:24:18.496Z,65.90
2019-05-11T14:26:48.636Z,64.40
2019-05-11T14:29:17.292Z,66.00
2019-05-11T14:31:44.471Z,65.30
2019-05-11T14:34:11.643Z,66.70
2019-05-11T14:36:39.184Z,68.40
2019-05-11T14:39:08.419Z,69.80
2019-05-11T14:41:37.986Z,68.60
2019-05-11T14:44:04.857Z,70.00
2019-05-11T14:46:32.196Z,70.20
2019-05-11T14:48:59.378Z,69.40
2019-05-11T14:51:28.274Z,71.70
2019-05-11T14:53:58.912Z,70.50
2019-05-11T14:56:24.965Z,74.00
2019-05-11T14:58:52.365Z,74.30
2019-05-11T15:01:19.668Z,75.80
2019-05-11T15:03:48.688Z,75.20
2019-05-11T15:06:15.877Z,74.80
2019-05-11T15:08:43.967Z,76.60
2019-05-11T15:11:11.380Z,76.70
2019-05-11T15:13:38.579Z,77.70
2019-05-11T15:16:08.143Z,77.70
2019-05-11T15:18:41.319Z,78.80
2019-05-11T15:21:04.889Z,78.30
2019-05-11T15:23:32.920Z,79.90
2019-05-11T15:26:00.407Z,81.30
2019-05-11T15:28:28.481Z,82.70
2019-05-11T15:30:55.785Z,83.00
2019-05-11T15:33:22.752Z,81.50
2019-05-11T15:35:50.115Z,81.60
2019-05-11T15:38:17.916Z,81.40
2019-05-11T15:40:45.276Z,82.50
2019-05-11T15:43:12.566Z,81.80
2019-05-11T15:45:39.947Z,82.60
2019-05-11T15:48:08.495Z,82.50
2019-05-11T15:50:39.796Z,82.90
2019-05-11T15:53:05.434Z,83.10
2019-05-11T15:55:32.496Z,84.40
2019-05-11T15:57:59.879Z,84.30
2019-05-11T16:00:27.464Z,85.40
2019-05-11T16:02:54.723Z,84.90
2019-05-11T16:05:21.799Z,85.90
2019-05-11T16:07:49.355Z,86.80
2019-05-11T16:10:18.726Z,86.50
2019-05-11T16:12:48.664Z,86.60
2019-05-11T16:15:18.876Z,86.90
2019-05-11T16:17:45.654Z,87.50
2019-05-11T16:20:12.629Z,87.50
2019-05-11T16:22:39.838Z,87.80
2019-05-11T16:25:10.448Z,87.40
2019-05-11T16:27:38.158Z,87.10
2019-05-11T16:30:06.332Z,88.20
2019-05-11T16:32:33.649Z,88.70
2019-05-11T16:35:01.003Z,88.20
2019-05-11T16:37:28.831Z,89.10
2019-05-11T16:39:58.263Z,89.40
2019-05-11T16:42:27.623Z,89.20
2019-05-11T16:44:54.396Z,89.40
2019-05-11T16:47:21.506Z,89.60
2019-05-11T16:49:49.668Z,89.20
2019-05-11T16:52:18.361Z,89.30
2019-05-11T16:54:47.716Z,89.50
2019-05-11T16:57:14.684Z,90.00
2019-05-11T16:59:41.911Z,89.70
2019-05-11T17:02:12.255Z,90.30
2019-05-11T17:04:39.891Z,90.00
2019-05-11T17:07:06.937Z,90.50
2019-05-11T17:09:37.671Z,90.70
2019-05-11T17:12:04.918Z,90.80
2019-05-11T17:14:32.531Z,90.60
2019-05-11T17:16:59.876Z,91.10
2019-05-11T17:19:42.204Z,91.50
2019-05-11T17:21:56.224Z,91.40
2019-05-11T17:24:23.260Z,91.20
2019-05-11T17:26:50.508Z,91.50
2019-05-11T17:29:18.914Z,91.20
2019-05-11T17:31:45.911Z,91.50
2019-05-11T17:34:13.040Z,91.40
2019-05-11T17:36:40.200Z,90.70
2019-05-11T17:39:07.718Z,91.20
2019-05-11T17:41:38.971Z,91.90
2019-05-11T17:44:08.077Z,91.30
2019-05-11T17:46:35.563Z,91.40
2019-05-11T17:49:03.044Z,91.80
2019-05-11T17:51:30.469Z,91.80
2019-05-11T17:53:59.722Z,91.70
2019-05-11T17:56:27.983Z,91.40
2019-05-11T17:58:58.916Z,91.30
2019-05-11T18:01:27.737Z,91.40
2019-05-11T18:03:55.492Z,91.70
2019-05-11T18:06:22.636Z,91.50
2019-05-11T18:08:49.663Z,91.80
2019-05-11T18:11:18.551Z,91.40
2019-05-11T18:13:48.098Z,91.60
2019-05-11T18:16:15.216Z,91.10
2019-05-11T18:18:42.570Z,91.10
2019-05-11T18:21:10.110Z,91.20
2019-05-11T18:23:38.741Z,90.60
2019-05-11T18:26:09.033Z,91.20
2019-05-11T18:28:37.847Z,90.90
2019-05-11T18:31:05.597Z,91.20
2019-05-11T18:33:32.663Z,90.70
2019-05-11T18:36:00.160Z,90.40
2019-05-11T18:38:27.784Z,89.50
2019-05-11T18:40:57.947Z,89.20
2019-05-11T18:43:25.132Z,89.20
2019-05-11T18:45:52.549Z,89.20
2019-05-11T18:48:19.916Z,89.10
2019-05-11T18:50:49.140Z,89.40
2019-05-11T18:53:18.446Z,89.50
2019-05-11T18:55:45.187Z,89.00
2019-05-11T18:58:12.441Z,89.10
2019-05-11T19:00:40.470Z,88.90
2019-05-11T19:03:08.861Z,89.00
2019-05-11T19:05:38.589Z,89.20
2019-05-11T19:08:05.999Z,89.20
2019-05-11T19:10:33.395Z,89.20
2019-05-11T19:13:00.930Z,89.50
2019-05-11T19:15:28.237Z,89.50
2019-05-11T19:17:57.920Z,89.70
2019-05-11T19:20:24.878Z,89.60
2019-05-11T19:22:51.797Z,89.80
2019-05-11T19:25:18.634Z,90.10
2019-05-11T19:27:50.319Z,90.20
2019-05-11T19:30:14.988Z,90.40
2019-05-11T19:32:42.240Z,90.30
2019-05-11T19:35:09.337Z,90.40
2019-05-11T19:37:38.529Z,90.50
2019-05-11T19:40:09.070Z,90.30
2019-05-11T19:42:49.676Z,90.50
2019-05-11T19:45:18.416Z,90.60
2019-05-11T19:47:48.337Z,90.10
2019-05-11T19:50:15.399Z,90.70
2019-05-11T19:52:42.969Z,90.60
2019-05-11T19:55:10.511Z,90.50
2019-05-11T19:57:38.616Z,90.00
2019-05-11T20:00:07.893Z,89.90
2019-05-11T20:02:35.041Z,89.90
2019-05-11T20:05:02.228Z,90.00
2019-05-11T20:07:31.893Z,90.20
2019-05-11T20:09:58.780Z,90.30
2019-05-11T20:12:25.767Z,90.40
2019-05-11T20:14:52.844Z,90.50
2019-05-11T20:17:20.344Z,90.70
2019-05-11T20:19:49.037Z,91.00
2019-05-11T20:22:16.214Z,91.10
2019-05-11T20:24:43.865Z,91.20
2019-05-11T20:27:10.956Z,91.20
2019-05-11T20:29:38.581Z,91.60
2019-05-11T20:32:08.045Z,91.70
2019-05-11T20:34:38.037Z,91.80
2019-05-11T20:37:07.816Z,91.80
2019-05-11T20:39:37.771Z,91.90
2019-05-11T20:42:04.618Z,91.90
2019-05-11T20:44:32.013Z,91.70
2019-05-11T20:46:59.339Z,91.80
2019-05-11T20:49:28.232Z,91.80
2019-05-11T20:51:57.940Z,91.90
2019-05-11T20:54:24.711Z,92.10
2019-05-11T20:56:52.194Z,92.10
2019-05-11T20:59:19.582Z,92.40
2019-05-11T21:01:47.962Z,92.40
2019-05-11T21:04:15.465Z,92.70
2019-05-11T21:06:42.378Z,92.70
2019-05-11T21:09:09.590Z,93.00
2019-05-11T21:11:36.884Z,93.00
2019-05-11T21:14:04.337Z,93.00
2019-05-11T21:16:31.383Z,92.90
2019-05-11T21:18:58.915Z,93.00
2019-05-11T21:21:27.904Z,93.20
2019-05-11T21:23:57.806Z,93.00
2019-05-11T21:26:24.885Z,93.20
2019-05-11T21:28:52.071Z,93.30
2019-05-11T21:31:19.037Z,93.20
2019-05-11T21:33:46.167Z,93.40
2019-05-11T21:36:13.707Z,93.50
2019-05-11T21:38:41.726Z,93.60
2019-05-11T21:41:09.301Z,93.70
2019-05-11T21:43:37.677Z,93.80
2019-05-11T21:46:07.983Z,93.90
2019-05-11T21:48:34.126Z,94.10
2019-05-11T21:51:01.163Z,94.20
2019-05-11T21:53:28.829Z,94.30
2019-05-11T21:55:55.980Z,94.30
2019-05-11T21:58:23.415Z,94.20
2019-05-11T22:00:50.641Z,94.50
2019-05-11T22:03:19.911Z,94.60
2019-05-11T22:05:48.475Z,94.70
2019-05-11T22:08:17.821Z,94.70
2019-05-11T22:10:45.822Z,94.80
2019-05-11T22:13:12.848Z,94.80
2019-05-11T22:15:40.147Z,95.00
2019-05-11T22:18:08.129Z,95.10
2019-05-11T22:20:38.073Z,95.20
2019-05-11T22:23:04.526Z,95.30
2019-05-11T22:25:31.739Z,95.50
2019-05-11T22:27:59.177Z,95.30
2019-05-11T22:30:27.832Z,95.30
2019-05-11T22:32:54.864Z,95.10
2019-05-11T22:35:21.860Z,95.10
2019-05-11T22:37:49.245Z,95.00
2019-05-11T22:40:16.375Z,95.10
2019-05-11T22:42:44.036Z,95.00
2019-05-11T22:45:11.390Z,95.10
2019-05-11T22:47:39.616Z,95.10
2019-05-11T22:50:07.959Z,94.90
2019-05-11T22:52:36.773Z,95.00
2019-05-11T22:55:04.684Z,95.20
2019-05-11T22:57:31.583Z,95.20
2019-05-11T23:00:01.473Z,95.30
2019-05-11T23:02:28.672Z,95.30
2019-05-11T23:04:57.989Z,95.30
2019-05-11T23:07:25.086Z,95.00
2019-05-11T23:09:52.759Z,95.00
2019-05-11T23:12:19.753Z,95.20
2019-05-11T23:14:49.134Z,95.20
2019-05-11T23:17:18.318Z,95.00
2019-05-11T23:19:45.774Z,95.40
2019-05-11T23:22:13.154Z,95.50
2019-05-11T23:24:40.133Z,95.30
2019-05-11T23:27:08.081Z,95.30
2019-05-11T23:29:35.256Z,95.60
2019-05-11T23:32:02.560Z,95.60
2019-05-11T23:34:29.569Z,95.70
2019-05-11T23:36:59.012Z,95.70
2019-05-11T23:39:28.137Z,95.70
2019-05-11T23:41:55.197Z,95.80
2019-05-11T23:44:22.626Z,95.80
2019-05-11T23:46:49.668Z,95.80
2019-05-11T23:49:18.006Z,95.60
2019-05-11T23:51:45.287Z,95.60
2019-05-11T23:54:12.692Z,95.60
2019-05-11T23:56:39.525Z,95.80
2019-05-11T23:59:08.305Z,95.20
